Time;durP1;ratioP1;P1;durP2;ratioP2;P2;SDS_P1;SDS_P2;PMS_P1;PMS_P2;Temp;Humidity;BMP_temperature;BMP_pressure;BME280_temperature;BME280_humidity;BME280_pressure;Samples;Min_cycle;Max_cycle;Signal;HPM_P1;HPM_P2
2021/03/20 00:00:58;;;;;;;5.37;4.25;;;;;;;17.52;49.42;100859.52;1776445;79;21143;-62
2021/03/20 00:03:25;;;;;;;6.23;4.97;;;;;;;17.49;49.44;100860.08;1774005;79;21579;-61
2021/03/20 00:05:52;;;;;;;5.92;4.45;;;;;;;17.46;49.42;100863.98;1770195;79;21190;-62
2021/03/20 00:08:21;;;;;;;6.75;4.85;;;;;;;17.43;49.47;100856.33;1772301;79;21230;-61
2021/03/20 00:10:48;;;;;;;4.97;3.98;;;;;;;17.41;49.46;100860.73;1768696;79;21124;-61
2021/03/20 00:13:16;;;;;;;5.37;4.60;;;;;;;17.38;49.48;100857.77;1733476;80;21150;-60
2021/03/20 00:15:42;;;;;;;6.08;4.75;;;;;;;17.35;49.49;100860.56;1774184;79;21216;-60
2021/03/20 00:18:09;;;;;;;6.08;4.75;;;;;;;17.33;49.52;100858.64;1770634;79;21169;-60
2021/03/20 00:20:40;;;;;;;6.05;4.20;;;;;;;17.31;49.52;100869.13;1763541;78;21189;-60
2021/03/20 00:23:06;;;;;;;;;;;;;;;17.28;49.52;100875.20;1791434;78;21131;-60
2021/03/20 00:25:33;;;;;;;6.42;4.40;;;;;;;17.25;49.53;100875.24;1789019;78;20468;-61
2021/03/20 00:28:01;;;;;;;5.90;4.65;;;;;;;17.22;49.56;100874.46;1787664;78;21519;-61
2021/03/20 00:30:29;;;;;;;6.47;4.58;;;;;;;17.19;49.57;100872.83;1776697;78;21570;-62
2021/03/20 00:32:55;;;;;;;5.65;4.15;;;;;;;17.18;49.60;100868.47;1766419;79;21556;-60
2021/03/20 00:35:22;;;;;;;6.50;4.37;;;;;;;17.15;49.62;100862.98;1759044;79;21490;-60
2021/03/20 00:37:50;;;;;;;6.30;4.40;;;;;;;17.12;49.63;100862.20;1756837;80;21149;-60
2021/03/20 00:40:21;;;;;;;7.92;4.40;;;;;;;17.11;49.65;100867.42;1759664;79;21221;-60
2021/03/20 00:42:47;;;;;;;;;;;;;;;17.08;49.66;100857.58;1756522;79;21096;-60
2021/03/20 00:45:14;;;;;;;5.08;4.05;;;;;;;17.04;49.67;100861.47;1758007;79;20286;-60
2021/03/20 00:47:41;;;;;;;5.83;4.35;;;;;;;17.03;49.68;100867.25;1753274;79;21083;-60
2021/03/20 00:50:09;;;;;;;5.92;4.12;;;;;;;17.01;49.70;100866.73;1762530;79;21510;-60
2021/03/20 00:52:36;;;;;;;6.47;4.58;;;;;;;16.98;49.72;100868.67;1756640;79;21590;-61
2021/03/20 00:55:04;;;;;;;7.05;4.92;;;;;;;16.96;49.75;100866.23;1765777;79;21541;-61
2021/03/20 00:57:31;;;;;;;7.20;4.70;;;;;;;16.94;49.76;100867.06;1755269;79;21167;-61
2021/03/20 00:59:57;;;;;;;5.22;4.20;;;;;;;16.93;49.78;100864.05;1759954;79;21187;-61
2021/03/20 01:02:24;;;;;;;5.85;3.65;;;;;;;16.95;49.83;100864.59;1755419;79;21625;-60
2021/03/20 01:04:50;;;;;;;6.35;4.22;;;;;;;16.97;49.83;100861.56;1754714;79;21506;-60
2021/03/20 01:07:17;;;;;;;5.28;4.17;;;;;;;17.01;49.85;100865.36;1761746;79;21569;-60
2021/03/20 01:09:43;;;;;;;5.03;4.12;;;;;;;17.04;49.87;100857.90;1759099;79;21510;-60
2021/03/20 01:12:10;;;;;;;6.17;4.30;;;;;;;17.08;49.86;100857.58;1765402;79;21506;-60
2021/03/20 01:14:36;;;;;;;4.97;4.08;;;;;;;17.11;49.88;100854.23;1755322;79;21146;-60
2021/03/20 01:17:03;;;;;;;6.40;4.15;;;;;;;17.15;49.86;100862.16;1776148;78;21349;-61
2021/03/20 01:19:29;;;;;;;6.05;4.30;;;;;;;17.17;49.85;100855.27;1733068;80;21244;-60
2021/03/20 01:21:56;;;;;;;5.75;4.20;;;;;;;17.21;49.87;100861.82;1750131;80;21517;-61
2021/03/20 01:24:22;;;;;;;5.60;4.00;;;;;;;17.24;49.86;100857.10;1734900;80;21675;-61
2021/03/20 01:26:49;;;;;;;5.12;4.12;;;;;;;17.28;49.87;100859.52;1753167;80;21142;-61
2021/03/20 01:29:16;;;;;;;6.28;4.08;;;;;;;17.31;49.85;100861.67;1741505;80;21244;-60
2021/03/20 01:31:42;;;;;;;4.45;3.87;;;;;;;17.35;49.86;100863.31;1771027;79;21205;-60
2021/03/20 01:34:09;;;;;;;4.25;3.80;;;;;;;17.38;49.84;100866.84;1762243;80;21217;-61
2021/03/20 01:36:35;;;;;;;6.00;3.98;;;;;;;17.39;49.84;100868.48;1766977;80;21215;-61
2021/03/20 01:39:02;;;;;;;4.72;3.47;;;;;;;17.42;49.84;100862.94;1766338;80;21235;-61
2021/03/20 01:41:29;;;;;;;5.22;3.75;;;;;;;17.44;49.83;100867.02;1761343;80;22187;-60
2021/03/20 01:43:55;;;;;;;4.47;3.42;;;;;;;17.48;49.84;100872.77;1762699;80;21409;-61
2021/03/20 01:46:53;;;;;;;5.37;3.55;;;;;;;17.49;49.84;100878.52;1761664;80;21574;-60
2021/03/20 01:49:35;;;;;;;5.20;3.80;;;;;;;17.51;49.85;100880.42;1762933;80;21182;-61
2021/03/20 01:52:19;;;;;;;4.50;3.60;;;;;;;17.54;49.83;100888.08;1766543;80;21115;-60
2021/03/20 01:55:01;;;;;;;4.30;3.22;;;;;;;17.56;49.81;100892.19;1763808;80;21260;-61
2021/03/20 01:57:30;;;;;;;;;;;;;;;17.58;49.82;100883.66;1786957;78;21619;-61
2021/03/20 01:59:56;;;;;;;3.72;3.27;;;;;;;17.60;49.79;100884.19;1755990;80;20220;-61
2021/03/20 02:02:23;;;;;;;4.33;3.62;;;;;;;17.60;49.79;100883.64;1770423;80;21067;-61
2021/03/20 02:04:49;;;;;;;3.98;3.30;;;;;;;17.61;49.78;100885.25;1762062;80;21563;-62
2021/03/20 02:07:16;;;;;;;5.08;3.42;;;;;;;17.62;49.78;100886.90;1760870;80;21443;-62
2021/03/20 02:09:42;;;;;;;5.22;3.85;;;;;;;17.66;49.79;100889.88;1768947;80;21265;-61
2021/03/20 02:12:21;;;;;;;4.87;3.70;;;;;;;17.66;49.79;100893.45;1764917;80;21165;-69
2021/03/20 02:15:17;;;;;;;4.72;3.60;;;;;;;17.68;49.78;100896.73;1767804;80;21475;-62
2021/03/20 02:18:09;;;;;;;4.00;3.17;;;;;;;17.70;49.76;100897.24;1767199;80;21473;-62
2021/03/20 02:21:13;;;;;;;4.22;3.30;;;;;;;17.71;49.73;100894.76;1762799;80;21221;-61
2021/03/20 02:24:13;;;;;;;5.22;3.58;;;;;;;17.74;49.73;100902.41;1767745;80;21585;-62
2021/03/20 02:27:25;;;;;;;4.75;3.17;;;;;;;17.75;49.70;100902.68;1770312;80;21538;-61
2021/03/20 02:30:30;;;;;;;4.17;3.20;;;;;;;17.75;49.68;100909.56;1758099;80;21187;-61
2021/03/20 02:33:26;;;;;;;4.40;3.55;;;;;;;17.75;49.65;100909.56;1697247;80;21117;-61
2021/03/20 02:36:22;;;;;;;4.80;3.60;;;;;;;17.77;49.62;100916.16;1759780;80;22147;-61
2021/03/20 02:38:53;;;;;;;5.30;3.45;;;;;;;17.76;49.63;100915.34;1769056;79;21145;-62
2021/03/20 02:41:26;;;;;;;;;;;;;;;17.79;49.62;100926.30;1771848;79;21170;-62
2021/03/20 02:44:16;;;;;;;3.87;3.05;;;;;;;17.79;49.63;100924.92;1766271;79;20312;-62
2021/03/20 02:46:57;;;;;;;4.47;3.42;;;;;;;17.79;49.62;100931.25;1772483;79;21097;-62
2021/03/20 02:49:30;;;;;;;;;;;;;;;17.80;49.61;100932.89;1772758;79;21567;-62
2021/03/20 02:52:16;;;;;;;4.10;3.25;;;;;;;17.84;49.63;100939.17;1763986;79;20234;-62
2021/03/20 02:55:01;;;;;;;4.30;2.87;;;;;;;17.82;49.61;100939.48;1763988;79;21475;-61
2021/03/20 02:57:39;;;;;;;4.03;3.30;;;;;;;17.84;49.62;100947.42;1769862;79;21171;-62
2021/03/20 03:00:14;;;;;;;4.17;2.80;;;;;;;17.84;49.60;100950.18;1767510;79;21167;-62
2021/03/20 03:02:40;;;;;;;5.60;3.60;;;;;;;17.86;49.59;100958.98;1766304;79;21208;-61
2021/03/20 03:05:23;;;;;;;4.58;3.25;;;;;;;17.88;49.58;100964.98;1769311;79;21189;-62
2021/03/20 03:07:58;;;;;;;4.05;3.35;;;;;;;17.88;49.59;100964.44;1766935;79;21083;-62
2021/03/20 03:10:33;;;;;;;4.03;3.33;;;;;;;17.92;49.58;100967.41;1769578;79;21139;-62
2021/03/20 03:13:16;;;;;;;4.20;3.58;;;;;;;17.93;49.56;100968.50;1742913;79;21204;-61
2021/03/20 03:15:48;;;;;;;4.75;3.67;;;;;;;17.95;49.54;100966.26;1764869;79;23489;-61
2021/03/20 03:18:25;;;;;;;5.03;3.58;;;;;;;17.95;49.52;100963.50;1762666;79;21202;-61
2021/03/20 03:20:54;;;;;;;4.28;3.35;;;;;;;17.97;49.51;100965.97;1767611;79;21196;-61
2021/03/20 03:23:23;;;;;;;5.33;3.55;;;;;;;17.96;49.48;100961.02;1768525;79;21083;-61
2021/03/20 03:25:57;;;;;;;3.98;3.30;;;;;;;17.98;49.47;100962.11;1767974;79;21151;-62
2021/03/20 03:28:26;;;;;;;4.92;3.52;;;;;;;17.99;49.42;100959.05;1766896;79;21543;-61
2021/03/20 03:30:54;;;;;;;4.22;3.22;;;;;;;18.02;49.42;100962.60;1764666;79;21150;-61
2021/03/20 03:33:29;;;;;;;5.10;3.37;;;;;;;18.02;49.39;100962.60;1749956;79;21078;-61
2021/03/20 03:35:58;;;;;;;4.70;3.42;;;;;;;18.02;49.38;100950.21;1793429;78;21120;-62
2021/03/20 03:38:47;;;;;;;5.22;3.65;;;;;;;18.05;49.36;100958.42;1781817;79;21071;-61
2021/03/20 03:41:37;;;;;;;4.20;3.33;;;;;;;18.06;49.33;100961.45;1780693;79;21207;-61
2021/03/20 03:44:04;;;;;;;4.72;3.60;;;;;;;18.06;49.32;100963.64;1782290;79;21214;-61
2021/03/20 03:46:33;;;;;;;5.45;3.60;;;;;;;18.05;49.28;100956.49;1755896;79;21106;-61
2021/03/20 03:49:01;;;;;;;5.25;3.58;;;;;;;18.06;49.26;100963.64;1777870;79;21165;-61
2021/03/20 03:51:28;;;;;;;4.70;3.17;;;;;;;18.07;49.22;100958.96;1782914;79;21202;-61
2021/03/20 03:53:55;;;;;;;5.37;3.85;;;;;;;18.08;49.20;100957.83;1778940;79;21191;-61
2021/03/20 03:56:46;;;;;;;5.30;3.72;;;;;;;18.07;49.19;100958.96;1780174;79;21184;-61
2021/03/20 03:59:35;;;;;;;4.47;3.33;;;;;;;18.06;49.17;100958.14;1777719;79;21616;-61
2021/03/20 04:02:25;;;;;;;4.92;3.40;;;;;;;18.06;49.12;100965.02;1784120;79;21157;-61
2021/03/20 04:05:06;;;;;;;4.95;3.60;;;;;;;18.04;49.09;100963.66;1781579;79;21503;-61
2021/03/20 04:08:15;;;;;;;6.47;3.92;;;;;;;18.01;49.09;100964.27;1772305;79;21322;-60
2021/03/20 04:10:58;;;;;;;5.53;3.85;;;;;;;17.99;49.08;100968.67;1785867;79;21220;-60
2021/03/20 04:13:51;;;;;;;4.83;3.75;;;;;;;17.95;49.05;100970.39;1779662;79;21151;-60
2021/03/20 04:16:22;;;;;;;4.60;3.50;;;;;;;17.94;49.05;100974.83;1780579;79;21516;-60
2021/03/20 04:19:15;;;;;;;4.60;3.70;;;;;;;17.90;49.04;100977.36;1783219;79;21460;-61
2021/03/20 04:22:02;;;;;;;4.90;3.55;;;;;;;17.88;49.04;100974.62;1779115;79;21204;-61
2021/03/20 04:24:48;;;;;;;6.30;4.00;;;;;;;17.85;49.03;100982.10;1756454;79;21149;-62
2021/03/20 04:27:18;;;;;;;5.37;4.00;;;;;;;17.80;48.86;100976.92;1778727;79;21020;-63
2021/03/20 04:29:53;;;;;;;6.37;4.00;;;;;;;17.76;49.02;100975.87;1741041;79;21242;-62
2021/03/20 04:32:30;;;;;;;4.83;3.85;;;;;;;17.74;49.05;100984.97;1770211;79;21188;-62
2021/03/20 04:35:06;;;;;;;5.12;3.70;;;;;;;17.70;49.03;100979.80;1777585;79;21302;-62
2021/03/20 04:37:38;;;;;;;5.10;3.87;;;;;;;17.67;49.05;100976.81;1772265;79;21445;-61
2021/03/20 04:40:07;;;;;;;6.50;4.45;;;;;;;17.63;49.05;100981.27;1768043;79;21098;-60
2021/03/20 04:42:36;;;;;;;5.55;4.17;;;;;;;17.59;49.07;100996.17;1775462;79;21202;-61
2021/03/20 04:45:11;;;;;;;6.10;4.35;;;;;;;17.56;49.09;101000.03;1766803;79;21474;-61
2021/03/20 04:47:38;;;;;;;5.67;4.53;;;;;;;17.54;49.13;101013.25;1772087;79;21727;-60
2021/03/20 04:50:17;;;;;;;5.85;4.22;;;;;;;17.50;49.13;101007.52;1744439;79;21146;-61
2021/03/20 04:52:46;;;;;;;6.20;4.40;;;;;;;17.46;49.12;101010.59;1780762;79;21132;-61
2021/03/20 04:55:12;;;;;;;7.08;4.97;;;;;;;17.44;49.17;101012.00;1742730;79;21631;-61
2021/03/20 04:58:13;;;;;;;5.28;3.90;;;;;;;17.40;49.16;101013.11;1778010;79;21211;-61
2021/03/20 05:00:47;;;;;;;7.42;4.85;;;;;;;17.39;49.19;101017.55;1776861;79;22218;-61
2021/03/20 05:03:33;;;;;;;5.05;4.25;;;;;;;17.38;49.19;101019.47;1766974;79;21170;-60
2021/03/20 05:06:06;;;;;;;7.17;4.78;;;;;;;17.39;49.22;101027.17;1771462;79;21150;-61
2021/03/20 05:08:47;;;;;;;6.80;4.90;;;;;;;17.40;49.22;101030.98;1795348;78;21206;-60
2021/03/20 05:11:22;;;;;;;7.25;4.75;;;;;;;17.43;49.23;101027.68;1771453;78;21111;-61
2021/03/20 05:14:17;;;;;;;6.15;4.15;;;;;;;17.45;49.22;101032.87;1774287;78;21222;-60
2021/03/20 05:16:53;;;;;;;6.53;4.37;;;;;;;17.47;49.23;101034.78;1767955;78;21233;-62
2021/03/20 05:19:21;;;;;;;5.85;4.28;;;;;;;17.50;49.20;101035.57;1792776;78;21492;-61
2021/03/20 05:21:54;;;;;;;5.62;4.17;;;;;;;17.54;49.19;101033.87;1778385;79;21612;-62
2021/03/20 05:24:33;;;;;;;6.05;4.47;;;;;;;17.56;49.17;101035.25;1766744;78;21125;-61
2021/03/20 05:27:00;;;;;;;5.03;3.75;;;;;;;17.59;49.17;101033.86;1799115;78;21152;-60
2021/03/20 05:29:27;;;;;;;6.50;3.95;;;;;;;17.62;49.14;101044.27;1762241;80;20972;-60
2021/03/20 05:31:53;;;;;;;6.22;3.92;;;;;;;17.63;49.13;101039.05;1778301;80;21490;-60
2021/03/20 05:34:37;;;;;;;6.17;4.05;;;;;;;17.66;49.13;101041.20;1758393;80;21186;-61
2021/03/20 05:37:04;;;;;;;6.00;4.10;;;;;;;17.68;49.11;101045.88;1764618;78;21110;-62
2021/03/20 05:39:31;;;;;;;5.62;4.33;;;;;;;17.69;49.00;101034.59;1780550;78;21269;-62
2021/03/20 05:42:14;;;;;;;5.55;4.08;;;;;;;17.72;49.07;101043.63;1782866;79;21129;-62
2021/03/20 05:45:12;;;;;;;6.22;4.10;;;;;;;17.75;49.05;101043.03;1785360;79;21196;-61
2021/03/20 05:47:56;;;;;;;5.33;3.92;;;;;;;17.78;49.05;101040.23;1774634;79;21482;-61
2021/03/20 05:50:31;;;;;;;5.30;3.67;;;;;;;17.80;49.01;101048.48;1780380;79;21526;-62
2021/03/20 05:53:19;;;;;;;5.72;3.98;;;;;;;17.82;48.98;101050.95;1783525;79;21368;-61
2021/03/20 05:55:55;;;;;;;6.00;3.70;;;;;;;17.84;48.94;101050.09;1777114;79;21506;-63
2021/03/20 05:59:03;;;;;;;5.00;3.72;;;;;;;17.84;48.93;101045.95;1783612;79;21463;-61
2021/03/20 06:01:44;;;;;;;5.50;3.95;;;;;;;17.87;48.91;101055.55;1778544;79;21474;-60
2021/03/20 06:04:38;;;;;;;7.25;4.47;;;;;;;17.88;48.90;101055.81;1776271;79;21122;-60
2021/03/20 06:07:45;;;;;;;6.03;3.87;;;;;;;17.90;48.88;101064.62;1774866;78;21205;-61
2021/03/20 06:10:31;;;;;;;5.90;4.00;;;;;;;17.90;48.86;101066.81;1765680;79;21162;-62
2021/03/20 06:13:37;;;;;;;5.28;3.95;;;;;;;17.92;48.84;101065.95;1770967;80;21593;-61
2021/03/20 06:16:23;;;;;;;5.30;3.62;;;;;;;17.93;48.80;101064.84;1775117;79;21186;-61
2021/03/20 06:19:19;;;;;;;5.67;4.03;;;;;;;17.94;48.80;101069.25;1761495;79;21632;-61
2021/03/20 06:22:08;;;;;;;6.25;4.12;;;;;;;17.95;48.79;101076.95;1773469;80;21157;-62
2021/03/20 06:24:49;;;;;;;5.22;3.80;;;;;;;17.97;48.77;101071.95;1767076;80;21202;-62
2021/03/20 06:27:19;;;;;;;6.62;4.35;;;;;;;17.98;48.77;101080.48;1790996;79;21178;-61
2021/03/20 06:29:57;;;;;;;6.85;4.20;;;;;;;18.00;48.78;101085.13;1790538;78;21177;-62
2021/03/20 06:32:31;;;;;;;5.60;3.77;;;;;;;18.00;48.78;101090.08;1786457;78;21135;-61
2021/03/20 06:35:11;;;;;;;6.10;4.35;;;;;;;18.02;48.79;101090.63;1788843;78;22037;-61
2021/03/20 06:37:40;;;;;;;5.33;3.92;;;;;;;18.03;48.79;101084.01;1787997;78;21146;-61
2021/03/20 06:40:32;;;;;;;6.25;4.05;;;;;;;18.05;48.77;101079.02;1797066;78;21606;-62
2021/03/20 06:42:58;;;;;;;5.15;4.03;;;;;;;18.08;48.76;101083.09;1785837;79;21198;-61
2021/03/20 06:45:28;;;;;;;6.25;4.17;;;;;;;18.09;48.74;101083.38;1777308;79;21251;-61
2021/03/20 06:48:20;;;;;;;6.03;4.28;;;;;;;18.10;48.73;101083.09;1778107;79;21522;-62
2021/03/20 06:50:53;;;;;;;5.55;3.67;;;;;;;18.15;48.73;101084.96;1781083;79;21184;-62
2021/03/20 06:53:30;;;;;;;5.92;4.00;;;;;;;18.17;48.68;101089.59;1805587;78;21144;-62
2021/03/20 06:55:57;;;;;;;6.22;4.00;;;;;;;18.19;48.67;101093.72;1804860;78;21610;-63
2021/03/20 06:58:38;;;;;;;4.72;3.70;;;;;;;18.22;48.64;101090.92;1809897;78;21497;-63
2021/03/20 07:01:19;;;;;;;5.28;4.00;;;;;;;18.24;48.59;101092.28;1804354;78;25126;-61
2021/03/20 07:04:11;;;;;;;5.95;3.72;;;;;;;18.25;48.58;101088.95;1782098;79;21189;-61
2021/03/20 07:06:58;;;;;;;5.87;3.98;;;;;;;18.28;48.54;101080.67;1811048;78;21157;-62
2021/03/20 07:09:25;;;;;;;5.50;3.70;;;;;;;18.29;48.53;101084.48;1773998;79;21115;-61
2021/03/20 07:12:20;;;;;;;6.47;4.28;;;;;;;18.32;48.52;101092.73;1808781;78;21134;-62
2021/03/20 07:14:52;;;;;;;5.15;3.67;;;;;;;18.34;48.50;101084.98;1787358;78;21489;-62
2021/03/20 07:17:33;;;;;;;5.10;3.75;;;;;;;18.36;48.47;101092.41;1798298;78;21129;-62
2021/03/20 07:20:16;;;;;;;5.90;3.98;;;;;;;18.38;48.45;101090.16;1808425;78;21086;-63
2021/03/20 07:22:50;;;;;;;6.03;3.95;;;;;;;18.41;48.43;101097.85;1792048;78;21126;-62
2021/03/20 07:25:40;;;;;;;6.20;3.47;;;;;;;18.41;48.41;101093.72;1773518;79;21186;-63
2021/03/20 07:28:14;;;;;;;6.15;4.25;;;;;;;18.44;48.39;101095.88;1803912;78;21404;-62
2021/03/20 07:30:51;;;;;;;5.70;4.03;;;;;;;18.46;48.38;101101.92;1784443;79;21139;-62
2021/03/20 07:33:35;;;;;;;5.65;3.85;;;;;;;18.47;48.36;101110.42;1799849;78;21139;-62
2021/03/20 07:36:20;;;;;;;5.22;3.72;;;;;;;18.50;48.36;101106.52;1807047;78;21565;-61
2021/03/20 07:38:49;;;;;;;5.70;3.75;;;;;;;18.52;48.34;101107.61;1785748;78;21482;-62
2021/03/20 07:41:17;;;;;;;6.05;3.95;;;;;;;18.54;48.30;101106.80;1772858;79;21239;-62
2021/03/20 07:43:59;;;;;;;5.90;3.95;;;;;;;18.55;48.30;101109.80;1792984;78;21130;-62
2021/03/20 07:46:26;;;;;;;4.80;3.80;;;;;;;18.56;48.29;101110.06;1795496;78;21430;-62
2021/03/20 07:49:03;;;;;;;5.25;3.58;;;;;;;18.58;48.26;101118.31;1802430;78;21710;-62
2021/03/20 07:51:30;;;;;;;5.05;3.62;;;;;;;18.60;48.25;101107.80;1782628;78;21122;-61
2021/03/20 07:53:57;;;;;;;5.30;3.62;;;;;;;18.61;48.24;101108.07;1751728;78;22281;-62
2021/03/20 07:56:33;;;;;;;4.67;3.42;;;;;;;18.62;48.23;101111.09;1800892;78;21162;-62
2021/03/20 07:59:05;;;;;;;5.37;4.03;;;;;;;18.63;48.23;101119.59;1787305;78;21145;-61
2021/03/20 08:01:36;;;;;;;5.35;3.80;;;;;;;18.64;48.20;101117.11;1793438;78;21113;-61
2021/03/20 08:04:06;;;;;;;5.87;3.83;;;;;;;18.65;48.20;101124.27;1770146;80;21182;-60
2021/03/20 08:06:41;;;;;;;4.17;3.30;;;;;;;18.66;48.16;101123.72;1783308;79;22129;-60
2021/03/20 08:09:22;;;;;;;5.80;3.83;;;;;;;18.66;48.17;101120.41;1781087;79;21154;-60
2021/03/20 08:12:03;;;;;;;5.45;3.90;;;;;;;18.67;48.14;101120.64;1771934;80;21153;-61
2021/03/20 08:14:51;;;;;;;5.33;3.50;;;;;;;18.68;48.13;101129.73;1799312;78;21991;-61
2021/03/20 08:17:19;;;;;;;5.40;3.47;;;;;;;18.67;48.12;101124.78;1756724;80;21170;-61
2021/03/20 08:19:46;;;;;;;4.90;3.52;;;;;;;18.69;48.11;101128.63;1783909;78;21561;-62
2021/03/20 08:22:36;;;;;;;5.62;3.60;;;;;;;18.69;48.10;101134.14;1785985;78;21514;-62
2021/03/20 08:25:42;;;;;;;5.75;4.17;;;;;;;18.70;48.07;101143.50;1780129;79;21470;-62
2021/03/20 08:28:54;;;;;;;4.92;3.58;;;;;;;18.71;48.06;101140.19;1775167;79;21573;-62
2021/03/20 08:31:43;;;;;;;4.62;3.60;;;;;;;18.73;48.02;101150.90;1749929;79;21483;-61
2021/03/20 08:34:44;;;;;;;5.00;3.42;;;;;;;18.74;48.00;101158.06;1765272;79;21303;-61
2021/03/20 08:37:34;;;;;;;4.78;3.40;;;;;;;18.74;47.96;101149.23;1767523;79;21186;-61
2021/03/20 08:40:25;;;;;;;4.03;3.15;;;;;;;18.73;47.95;101151.72;1768610;79;21535;-61
2021/03/20 08:43:41;;;;;;;5.77;3.80;;;;;;;18.74;47.94;101153.37;1767628;79;21680;-60
2021/03/20 08:46:54;;;;;;;4.65;3.30;;;;;;;18.75;47.93;101151.44;1771138;79;21159;-62
2021/03/20 08:50:08;;;;;;;5.22;3.33;;;;;;;18.74;47.94;101149.23;1764199;79;21214;-60
2021/03/20 08:52:55;;;;;;;4.55;3.70;;;;;;;18.74;47.93;101150.61;1788190;78;21150;-62
2021/03/20 08:55:42;;;;;;;5.62;3.87;;;;;;;18.73;47.91;101150.34;1790901;78;21198;-61
2021/03/20 08:58:50;;;;;;;5.80;3.40;;;;;;;18.73;47.92;101153.66;1793494;78;21176;-59
2021/03/20 09:01:43;;;;;;;4.70;3.50;;;;;;;18.71;47.91;101153.97;1791705;78;21138;-61
2021/03/20 09:04:19;;;;;;;6.33;3.45;;;;;;;18.70;47.93;101157.83;1792324;78;21108;-61
2021/03/20 09:07:08;;;;;;;5.42;3.50;;;;;;;18.71;47.96;101147.08;1784960;78;21076;-62
2021/03/20 09:09:40;;;;;;;4.75;3.25;;;;;;;18.73;47.96;101150.34;1790553;78;21147;-62
2021/03/20 09:12:31;;;;;;;5.25;3.30;;;;;;;18.73;47.95;101149.52;1791366;78;21207;-60
2021/03/20 09:14:57;;;;;;;5.40;3.58;;;;;;;18.75;47.95;101152.26;1793189;78;21147;-61
2021/03/20 09:17:36;;;;;;;4.20;3.22;;;;;;;18.77;47.95;101151.94;1789192;78;21187;-60
2021/03/20 09:22:45;;;;;;;6.03;3.60;;;;;;;18.85;47.93;101149.89;1858455;75;22108;-62
2021/03/20 09:25:26;;;;;;;3.62;2.95;;;;;;;18.82;47.95;101145.81;1838893;77;21044;-62
2021/03/20 09:28:14;;;;;;;3.92;3.40;;;;;;;18.83;47.95;101150.21;1830818;77;21168;-62
2021/03/20 09:30:45;;;;;;;4.58;3.40;;;;;;;18.86;47.91;101148.23;1833247;77;20938;-62
2021/03/20 09:33:29;;;;;;;3.92;3.30;;;;;;;18.87;47.91;101147.12;1826827;77;21027;-63
2021/03/20 09:36:05;;;;;;;3.83;3.33;;;;;;;18.87;47.89;101140.23;1828501;77;20990;-61
2021/03/20 09:38:40;;;;;;;4.62;3.22;;;;;;;18.88;47.88;101137.73;1827076;77;21154;-62
2021/03/20 09:41:28;;;;;;;4.80;3.22;;;;;;;18.89;47.87;101129.70;1827231;77;21085;-62
2021/03/20 09:44:03;;;;;;;4.47;3.47;;;;;;;18.90;47.86;101135.48;1827494;77;21064;-62
2021/03/20 09:46:48;;;;;;;4.10;3.35;;;;;;;18.90;47.88;101129.97;1791438;78;21114;-62
2021/03/20 09:49:20;;;;;;;5.15;3.40;;;;;;;18.91;47.88;101137.69;1793877;78;21265;-62
2021/03/20 09:51:58;;;;;;;4.72;3.42;;;;;;;18.93;47.87;101143.71;1759883;80;21568;-62
2021/03/20 09:54:40;;;;;;;3.98;3.10;;;;;;;18.93;47.87;101141.77;1768822;78;20999;-61
2021/03/20 09:59:46;;;;;;;5.22;3.67;;;;;;;18.97;47.86;101130.41;1773103;79;21470;-62
2021/03/20 10:02:25;;;;;;;4.05;3.30;;;;;;;19.00;47.84;101127.08;1782677;79;21154;-61
2021/03/20 10:04:59;;;;;;;5.05;3.15;;;;;;;19.00;47.82;101121.56;1780094;79;21537;-62
2021/03/20 10:07:35;;;;;;;4.05;2.98;;;;;;;19.10;47.79;101119.19;1858658;75;22712;-62
2021/03/20 10:10:17;;;;;;;4.75;3.12;;;;;;;19.06;47.80;101125.04;1823336;77;21156;-61
2021/03/20 10:12:52;;;;;;;4.95;3.33;;;;;;;19.08;47.80;101125.02;1832132;77;21567;-61
2021/03/20 10:15:30;;;;;;;4.10;3.40;;;;;;;19.09;47.80;101121.15;1832514;77;21015;-62
2021/03/20 10:18:08;;;;;;;3.83;3.00;;;;;;;19.10;47.78;101126.91;1832837;76;22574;-62
2021/03/20 10:20:45;;;;;;;3.95;3.15;;;;;;;19.12;47.76;101127.99;1826135;77;20985;-61
2021/03/20 10:23:26;;;;;;;4.42;3.33;;;;;;;19.12;47.75;101132.95;1832879;77;21137;-61
2021/03/20 10:25:55;;;;;;;3.37;2.60;;;;;;;19.13;47.76;101135.16;1827848;77;21201;-60
2021/03/20 10:28:29;;;;;;;3.52;2.87;;;;;;;19.13;47.77;101126.33;1828095;77;21312;-61
2021/03/20 10:31:00;;;;;;;4.50;3.30;;;;;;;19.14;47.77;101129.31;1828889;77;21634;-60
2021/03/20 10:33:32;;;;;;;3.83;3.00;;;;;;;19.15;47.77;101122.69;1830564;77;21386;-60
2021/03/20 10:36:13;;;;;;;4.50;2.95;;;;;;;19.18;47.78;101129.53;1832793;77;21521;-61
2021/03/20 10:38:39;;;;;;;3.47;3.10;;;;;;;19.18;47.78;101123.45;1828362;77;21552;-61
2021/03/20 10:41:14;;;;;;;3.70;2.75;;;;;;;19.19;47.77;101121.52;1828969;77;21557;-61
2021/03/20 10:43:50;;;;;;;4.92;3.70;;;;;;;19.20;47.77;101115.45;1829325;77;21164;-61
2021/03/20 10:46:34;;;;;;;4.62;3.05;;;;;;;19.24;47.89;101119.25;1842801;76;23319;-61
2021/03/20 10:49:06;;;;;;;4.55;3.15;;;;;;;19.24;47.89;101119.25;1809108;77;21160;-63
2021/03/20 10:51:39;;;;;;;3.87;2.95;;;;;;;19.24;47.74;101121.45;1748080;80;21207;-60
2021/03/20 10:54:28;;;;;;;3.35;2.40;;;;;;;19.25;47.75;101118.95;1778894;79;21048;-61
2021/03/20 10:56:55;;;;;;;3.87;2.98;;;;;;;19.25;47.73;101120.34;1751095;80;20956;-61
2021/03/20 10:59:27;;;;;;;3.50;2.65;;;;;;;19.24;47.75;101114.55;1745548;80;21032;-62
2021/03/20 11:01:54;;;;;;;4.03;2.95;;;;;;;19.25;47.74;101113.44;1736261;80;21404;-61
2021/03/20 11:04:33;;;;;;;4.08;3.00;;;;;;;19.27;47.74;101115.88;1737210;81;22113;-60
2021/03/20 11:07:01;;;;;;;4.50;2.83;;;;;;;19.29;47.73;101108.14;1749882;81;21226;-62
2021/03/20 11:09:30;;;;;;;3.85;2.70;;;;;;;19.29;47.71;101108.95;1764862;79;21171;-61
2021/03/20 11:12:02;;;;;;;4.30;2.77;;;;;;;19.31;47.70;101108.67;1811029;77;21464;-61
2021/03/20 11:14:29;;;;;;;3.75;2.85;;;;;;;19.32;47.70;101115.80;1805997;77;21110;-61
2021/03/20 11:17:03;;;;;;;3.55;2.87;;;;;;;19.32;47.70;101113.05;1807782;77;21174;-62
2021/03/20 11:19:33;;;;;;;2.75;2.40;;;;;;;19.32;47.69;101108.91;1806220;77;21145;-61
2021/03/20 11:22:04;;;;;;;3.72;2.87;;;;;;;19.33;47.66;101103.09;1805680;77;21132;-61
2021/03/20 11:24:34;;;;;;;4.00;2.80;;;;;;;19.32;47.65;101101.45;1805262;77;21503;-61
2021/03/20 11:27:23;;;;;;;4.20;2.50;;;;;;;19.33;47.65;101096.75;1805992;79;21152;-61
2021/03/20 11:29:54;;;;;;;3.75;2.70;;;;;;;19.32;47.65;101093.73;1806410;77;22082;-61
2021/03/20 11:32:32;;;;;;;3.55;2.47;;;;;;;19.31;47.64;101088.77;1801845;77;21582;-62
2021/03/20 11:35:32;;;;;;;4.40;2.52;;;;;;;19.32;47.64;101093.73;1807185;77;21132;-58
2021/03/20 11:38:01;;;;;;;3.98;2.95;;;;;;;19.31;47.64;101080.49;1797776;79;21149;-58
2021/03/20 11:40:41;;;;;;;4.97;3.02;;;;;;;19.32;47.62;101085.45;1746369;81;21192;-58
2021/03/20 11:43:41;;;;;;;4.10;3.15;;;;;;;19.36;47.55;101080.97;1743146;81;20986;-58
2021/03/20 11:46:20;;;;;;;4.50;3.37;;;;;;;19.38;47.43;101076.80;1747351;81;20990;-57
2021/03/20 11:48:55;;;;;;;3.47;3.10;;;;;;;19.40;47.15;101073.72;1759998;80;21005;-57
2021/03/20 11:51:39;;;;;;;4.33;3.05;;;;;;;19.43;46.91;101074.55;1773379;78;21141;-57
2021/03/20 11:54:20;;;;;;;3.30;3.00;;;;;;;19.45;46.82;101073.67;1806911;78;21202;-58
2021/03/20 11:56:59;;;;;;;4.08;3.30;;;;;;;19.48;46.68;101070.30;1814199;78;22082;-58
2021/03/20 11:59:44;;;;;;;4.70;4.05;;;;;;;19.51;46.54;101066.39;1789346;78;21617;-58
2021/03/20 12:02:25;;;;;;;4.60;3.40;;;;;;;19.53;46.22;101056.41;1803038;78;21142;-60
2021/03/20 12:05:14;;;;;;;5.12;3.55;;;;;;;19.60;45.28;101052.71;1862599;75;22682;-60
2021/03/20 12:07:41;;;;;;;;;;;;;;;19.55;45.18;101055.55;1845801;77;21143;-59
2021/03/20 12:10:32;;;;;;;3.83;3.42;;;;;;;19.56;45.12;101042.81;1804762;77;23624;-59
2021/03/20 12:12:59;;;;;;;3.52;2.98;;;;;;;19.56;45.08;101042.81;1708762;81;21169;-59
2021/03/20 12:15:30;;;;;;;4.08;3.12;;;;;;;19.57;44.98;101044.45;1701966;82;21106;-66
2021/03/20 12:17:59;;;;;;;4.00;3.33;;;;;;;19.60;44.91;101044.43;1698882;81;21091;-61
2021/03/20 12:20:40;;;;;;;4.25;3.62;;;;;;;19.64;44.82;101039.11;1691675;82;21108;-62